M I D A S
Marine Information and Data Acquisition System
Tripno 1547 of the Zeeleeuw from 2008-03-07 07:16:49 to 2008-03-07 12:44:20
Back to CruiseResearch ActivitiesStationsMapUnderway DataData graphs

EquipmentUnitsComment
TimeDGPSUTC
LatitudeDGPSDM.mWGS84
LongitudeDGPSDM.mWGS84
HeadingGyrodeg 
SOGDGPSknotsSpeed over ground
COGDGPSdegCourse over ground
DepthEcho soundermeters200 kHz
Missing or incorrect values are displayed as -999
Navigation data collected by the RV Zeeleeuw from 2008-03-07 07:19:05 to 2008-03-07 12:52:52
                                                                                    Next 1000 lines
Time Latitude Longitude Heading SOG COG Depth
2008-03-07 07:19:15 51°13.664 2°55.952 108.8 0.8 294 5.3
2008-03-07 07:19:20 51°13.665 2°55.95 109.1 1.2 290 5.3
2008-03-07 07:19:25 51°13.666 2°55.947 109.5 1.5 294 5.2
2008-03-07 07:19:30 51°13.667 2°55.943 110.2 1.9 292 5.3
2008-03-07 07:19:35 51°13.668 2°55.938 110.7 2.3 293 -999
2008-03-07 07:19:40 51°13.669 2°55.933 111.1 2.6 293 -999
2008-03-07 07:19:45 51°13.67 2°55.927 111.4 2.9 294 -999
2008-03-07 07:19:50 51°13.672 2°55.921 111.6 3.2 295 -999
2008-03-07 07:19:55 51°13.674 2°55.914 111.7 3.4 294 -999
2008-03-07 07:20:00 51°13.676 2°55.907 111.4 3.6 293 -999
2008-03-07 07:20:05 51°13.678 2°55.899 110.1 3.7 292 -999
2008-03-07 07:20:10 51°13.68 2°55.891 107.8 3.9 290 -999
2008-03-07 07:20:15 51°13.682 2°55.882 106 4.1 288 -999
2008-03-07 07:20:20 51°13.683 2°55.874 103.8 4 286 -999
2008-03-07 07:20:25 51°13.684 2°55.866 101.8 3.9 284 -999
2008-03-07 07:20:30 51°13.686 2°55.857 99.9 3.7 282 -999
2008-03-07 07:20:35 51°13.686 2°55.85 98 3.6 281 -999
2008-03-07 07:20:40 51°13.687 2°55.842 96.3 3.5 280 -999
2008-03-07 07:20:45 51°13.688 2°55.835 94.5 3.4 278 -999
2008-03-07 07:20:50 51°13.689 2°55.828 92.8 3.3 277 -999
2008-03-07 07:20:55 51°13.689 2°55.821 91 3.2 274 -999
2008-03-07 07:21:00 51°13.689 2°55.814 89.2 3.1 274 -999
2008-03-07 07:21:05 51°13.689 2°55.807 87.7 3.1 272 -999
2008-03-07 07:21:10 51°13.689 2°55.8 85.9 3 270 8.2
2008-03-07 07:21:15 51°13.689 2°55.794 83.8 2.9 269 8.8
2008-03-07 07:21:20 51°13.689 2°55.788 82.5 2.8 268 -999
2008-03-07 07:21:25 51°13.689 2°55.781 81.2 2.8 266 -999
2008-03-07 07:21:30 51°13.689 2°55.775 79 2.7 265 -999
2008-03-07 07:21:35 51°13.688 2°55.77 77.4 2.6 264 -999
2008-03-07 07:21:40 51°13.688 2°55.764 76 2.5 263 -999
2008-03-07 07:21:45 51°13.688 2°55.759 74.7 2.3 260 -999
2008-03-07 07:21:50 51°13.687 2°55.754 73.5 2.2 261 -999
2008-03-07 07:21:55 51°13.687 2°55.75 72.4 2 260 -999
2008-03-07 07:22:00 51°13.686 2°55.746 70.8 1.7 259 10
2008-03-07 07:22:05 51°13.686 2°55.743 68.9 1.6 258 10.1
2008-03-07 07:22:10 51°13.685 2°55.74 67.4 1.3 258 10.1
2008-03-07 07:22:15 51°13.685 2°55.738 65.3 1 260 10.2
2008-03-07 07:22:20 51°13.685 2°55.736 63 0.7 267 10.5
2008-03-07 07:22:25 51°13.685 2°55.735 60.2 0.4 277 10.8
2008-03-07 07:22:30 51°13.685 2°55.735 57.1 0.3 315 11
2008-03-07 07:22:35 51°13.686 2°55.735 54.3 0.4 4 10.9
2008-03-07 07:22:40 51°13.686 2°55.735 50.4 0.6 17 10.8
2008-03-07 07:22:45 51°13.687 2°55.736 45.3 0.9 21 10.8
2008-03-07 07:22:50 51°13.689 2°55.737 41.4 1.1 22 10.7
2008-03-07 07:22:55 51°13.691 2°55.738 35.2 1.3 20 10.8
2008-03-07 07:23:00 51°13.693 2°55.739 29.9 1.5 17 10.8
2008-03-07 07:23:05 51°13.695 2°55.74 25.6 1.7 14 10.8
2008-03-07 07:23:10 51°13.697 2°55.74 20.3 1.8 10 10.8
2008-03-07 07:23:15 51°13.7 2°55.741 14.8 2 5 11
2008-03-07 07:23:20 51°13.703 2°55.741 8.5 2.2 1 -999
2008-03-07 07:23:25 51°13.706 2°55.74 3.2 2.4 356 11.8
2008-03-07 07:23:30 51°13.71 2°55.74 359 2.6 351 11.8
2008-03-07 07:23:35 51°13.714 2°55.738 352.1 2.8 345 11.6
2008-03-07 07:23:40 51°13.718 2°55.736 347.6 3 341 11.3
2008-03-07 07:23:45 51°13.722 2°55.733 341.6 3.3 335 11.4
2008-03-07 07:23:50 51°13.726 2°55.729 336 3.6 333 10.6
2008-03-07 07:23:55 51°13.731 2°55.725 331.9 3.9 329 10.5
2008-03-07 07:24:00 51°13.736 2°55.72 329.1 4.2 328 10.4
2008-03-07 07:24:05 51°13.741 2°55.714 327.2 4.5 327 9.9
2008-03-07 07:24:10 51°13.746 2°55.709 326.2 4.7 327 9.8
2008-03-07 07:24:15 51°13.752 2°55.703 326.2 5.1 327 9.9
2008-03-07 07:24:20 51°13.758 2°55.696 326.7 5.3 327 9.9
2008-03-07 07:24:25 51°13.765 2°55.689 326.8 5.7 327 9.8
2008-03-07 07:24:30 51°13.772 2°55.682 327.2 6 328 9.8
2008-03-07 07:24:35 51°13.779 2°55.675 328 6.3 328 9.7
2008-03-07 07:24:40 51°13.787 2°55.668 328.7 6.5 329 9.8
2008-03-07 07:24:45 51°13.796 2°55.66 329.6 6.8 330 9.6
2008-03-07 07:24:50 51°13.804 2°55.653 330.6 7.1 330 9.6
2008-03-07 07:24:55 51°13.813 2°55.645 330.9 7.3 332 9.5
2008-03-07 07:25:00 51°13.822 2°55.638 331.8 7.5 333 9.7
2008-03-07 07:25:05 51°13.832 2°55.63 332.8 7.7 333 9.4
2008-03-07 07:25:10 51°13.842 2°55.622 333 7.9 333 9.3
2008-03-07 07:25:15 51°13.851 2°55.614 333.4 8.1 334 9.7
2008-03-07 07:25:20 51°13.862 2°55.606 334.1 8.3 335 9.7
2008-03-07 07:25:25 51°13.872 2°55.598 335 8.5 334 9.6
2008-03-07 07:25:30 51°13.883 2°55.589 335 8.7 334 9.5
2008-03-07 07:25:35 51°13.895 2°55.581 334.8 8.9 334 9.7
2008-03-07 07:25:40 51°13.906 2°55.573 335.3 9.1 335 9.7
2008-03-07 07:25:45 51°13.918 2°55.564 335.5 9.3 334 9.4
2008-03-07 07:25:50 51°13.929 2°55.555 335.2 9.4 335 9.7
2008-03-07 07:25:55 51°13.941 2°55.546 335.5 9.5 335 9.9
2008-03-07 07:26:00 51°13.953 2°55.537 335.6 9.6 334 9.9
2008-03-07 07:26:05 51°13.966 2°55.528 335.2 9.7 335 9.9
2008-03-07 07:26:10 51°13.978 2°55.519 335.3 9.7 335 9.9
2008-03-07 07:26:15 51°13.99 2°55.51 335.3 9.8 335 9.8
2008-03-07 07:26:20 51°14.003 2°55.501 335.5 9.8 336 9.8
2008-03-07 07:26:25 51°14.015 2°55.492 336.3 9.8 335 9.7
2008-03-07 07:26:30 51°14.027 2°55.482 335.9 9.8 334 9.5
2008-03-07 07:26:35 51°14.039 2°55.473 335.2 9.8 335 9.5
2008-03-07 07:26:40 51°14.052 2°55.464 335.3 9.8 335 9.8
2008-03-07 07:26:45 51°14.064 2°55.455 335.8 9.9 335 9.4
2008-03-07 07:26:50 51°14.076 2°55.445 336 9.9 334 9.3
2008-03-07 07:26:55 51°14.089 2°55.435 335.6 9.9 334 9
2008-03-07 07:27:00 51°14.101 2°55.426 335 9.9 333 8.1
2008-03-07 07:27:05 51°14.114 2°55.416 334.8 9.8 334 8.8
2008-03-07 07:27:10 51°14.126 2°55.406 334.9 9.8 333 9.1
2008-03-07 07:27:15 51°14.138 2°55.397 334.4 9.8 333 9.4
2008-03-07 07:27:20 51°14.15 2°55.387 334.2 9.7 333 9.7
2008-03-07 07:27:25 51°14.162 2°55.377 334.1 9.7 332 9.9
2008-03-07 07:27:30 51°14.173 2°55.366 333 9.7 330 9.8
2008-03-07 07:27:35 51°14.185 2°55.355 331.3 9.6 329 9.5
2008-03-07 07:27:40 51°14.196 2°55.344 330.3 9.6 328 10
2008-03-07 07:27:45 51°14.207 2°55.333 329.4 9.6 327 9.9
2008-03-07 07:27:50 51°14.218 2°55.321 327.8 9.6 326 10
2008-03-07 07:27:55 51°14.229 2°55.309 327.2 9.6 326 9.8
2008-03-07 07:28:00 51°14.24 2°55.296 327.1 9.6 323 10.1
2008-03-07 07:28:05 51°14.25 2°55.283 324.8 9.7 321 9.7
2008-03-07 07:28:10 51°14.261 2°55.269 322.4 9.7 320 9.8
2008-03-07 07:28:15 51°14.271 2°55.254 320.3 9.8 317 10
2008-03-07 07:28:20 51°14.28 2°55.239 317.8 9.8 316 10
2008-03-07 07:28:25 51°14.29 2°55.223 316.4 9.8 314 9.8
2008-03-07 07:28:30 51°14.299 2°55.207 315 9.8 313 9.8
2008-03-07 07:28:35 51°14.308 2°55.191 312.8 9.9 310 9.8
2008-03-07 07:28:40 51°14.317 2°55.174 310.6 9.9 311 9.4
2008-03-07 07:28:45 51°14.325 2°55.157 309.9 10 310 9.5
2008-03-07 07:28:50 51°14.335 2°55.14 309.8 10.1 310 9.6
2008-03-07 07:28:55 51°14.344 2°55.123 309.8 10.2 309 9.5
2008-03-07 07:29:00 51°14.352 2°55.105 309.5 10.3 309 9.5
2008-03-07 07:29:05 51°14.361 2°55.086 308.6 10.4 307 9.4
2008-03-07 07:29:10 51°14.37 2°55.068 307.4 10.5 306 9.4
2008-03-07 07:29:15 51°14.378 2°55.049 306.2 10.6 305 9.4
2008-03-07 07:29:20 51°14.387 2°55.029 305.2 10.7 305 9.2
2008-03-07 07:29:25 51°14.395 2°55.009 305 10.8 304 9.1
2008-03-07 07:29:30 51°14.404 2°54.989 305.3 11 305 9.2
2008-03-07 07:29:35 51°14.412 2°54.969 305.6 11.3 304 9.2
2008-03-07 07:29:40 51°14.422 2°54.949 306.1 11.3 306 9.2
2008-03-07 07:29:45 51°14.431 2°54.928 307.8 11.6 307 9.3
2008-03-07 07:29:50 51°14.442 2°54.908 309 11.7 309 9.4
2008-03-07 07:29:55 51°14.452 2°54.888 310.6 11.8 311 9.4
2008-03-07 07:30:00 51°14.463 2°54.869 312.9 11.9 312 9.4
2008-03-07 07:30:05 51°14.474 2°54.849 313.8 12 312 9.4
2008-03-07 07:30:10 51°14.486 2°54.83 314.4 12 314 9.4
2008-03-07 07:30:15 51°14.498 2°54.812 316.1 12 317 9.3
2008-03-07 07:30:20 51°14.511 2°54.794 319 12 319 9.1
2008-03-07 07:30:25 51°14.523 2°54.777 321.6 12.1 320 8.9
2008-03-07 07:30:30 51°14.536 2°54.76 322.7 12.1 320 8.6
2008-03-07 07:30:35 51°14.549 2°54.743 323.6 12 322 8.6
2008-03-07 07:30:40 51°14.563 2°54.728 325.2 12.1 324 8.8
2008-03-07 07:30:45 51°14.577 2°54.713 327.3 12.1 327 8.6
2008-03-07 07:30:50 51°14.592 2°54.7 330.3 12.1 330 8.5
2008-03-07 07:30:55 51°14.607 2°54.688 333.5 12 333 8.5
2008-03-07 07:31:00 51°14.622 2°54.678 336.6 12 337 8.3
2008-03-07 07:31:05 51°14.638 2°54.669 340.2 11.9 341 8.4
2008-03-07 07:31:10 51°14.654 2°54.663 344 11.9 346 8.4
2008-03-07 07:31:15 51°14.67 2°54.658 348 11.8 350 8.3
2008-03-07 07:31:20 51°14.686 2°54.655 352.2 11.8 354 8.4
2008-03-07 07:31:25 51°14.702 2°54.654 355.9 11.7 357 8.4
2008-03-07 07:31:30 51°14.719 2°54.654 359.2 11.7 1 8.4
2008-03-07 07:31:35 51°14.735 2°54.655 2.7 11.8 3 8.3
2008-03-07 07:31:40 51°14.751 2°54.658 5.5 11.8 6 8.2
2008-03-07 07:31:45 51°14.768 2°54.659 7.2 11.8 4 8.2
2008-03-07 07:31:50 51°14.784 2°54.663 8 11.8 7 8.1
2008-03-07 07:31:55 51°14.8 2°54.665 8.7 11.8 6 8.3
2008-03-07 07:32:00 51°14.817 2°54.668 8.7 11.8 6 8.2
2008-03-07 07:32:05 51°14.833 2°54.67 8.7 11.8 6 8.1
2008-03-07 07:32:10 51°14.849 2°54.673 8.8 11.8 6 7.9
2008-03-07 07:32:15 51°14.865 2°54.676 9.3 11.9 6 8.1
2008-03-07 07:32:20 51°14.882 2°54.678 8.9 11.8 6 7.8
2008-03-07 07:32:25 51°14.898 2°54.681 8.9 11.8 7 7.8
2008-03-07 07:32:30 51°14.914 2°54.683 9.3 11.7 5 7.9
2008-03-07 07:32:35 51°14.93 2°54.687 8.7 11.6 7 7.9
2008-03-07 07:32:40 51°14.946 2°54.689 8.9 11.5 6 7.9
2008-03-07 07:32:45 51°14.962 2°54.693 9.3 11.5 8 7.9
2008-03-07 07:32:50 51°14.978 2°54.695 9.5 11.6 5 7.8
2008-03-07 07:32:55 51°14.994 2°54.698 9.2 11.6 7 7.8
2008-03-07 07:33:00 51°15.01 2°54.7 8.8 11.5 5 7.6
2008-03-07 07:33:05 51°15.025 2°54.703 8.3 11.4 7 7.4
2008-03-07 07:33:10 51°15.041 2°54.705 8.7 11.4 6 7.3
2008-03-07 07:33:15 51°15.057 2°54.708 8.9 11.4 6 5.5
2008-03-07 07:33:20 51°15.072 2°54.71 8.7 11.4 5 7.1
2008-03-07 07:33:25 51°15.088 2°54.713 8.6 11.3 6 6.9
2008-03-07 07:33:30 51°15.104 2°54.716 8.9 11.3 6 6.7
2008-03-07 07:33:35 51°15.119 2°54.718 8.9 11.2 5 6.8
2008-03-07 07:33:40 51°15.135 2°54.719 8.2 11.2 3 6.8
2008-03-07 07:33:45 51°15.15 2°54.721 7.2 11.2 3 6.7
2008-03-07 07:33:50 51°15.165 2°54.722 6.5 11.2 2 6.8
2008-03-07 07:33:55 51°15.181 2°54.723 5.8 11.3 3 6.9
2008-03-07 07:34:00 51°15.197 2°54.724 5.7 11.3 3 6.9
2008-03-07 07:34:05 51°15.212 2°54.727 6.3 11.3 6 7.1
2008-03-07 07:34:10 51°15.228 2°54.729 7.7 11.4 4 6.9
2008-03-07 07:34:15 51°15.244 2°54.732 8.4 11.4 7 7
2008-03-07 07:34:20 51°15.26 2°54.735 8.8 11.4 6 7.1
2008-03-07 07:34:25 51°15.275 2°54.738 9.5 11.4 7 7.1
2008-03-07 07:34:30 51°15.291 2°54.741 10 11.4 8 7.2
2008-03-07 07:34:35 51°15.307 2°54.744 9.9 11.5 6 7.2
2008-03-07 07:34:40 51°15.323 2°54.746 9.8 11.5 5 7.2
2008-03-07 07:34:45 51°15.338 2°54.75 8.9 11.5 8 7.3
2008-03-07 07:34:50 51°15.354 2°54.753 9.8 11.5 7 5.6
2008-03-07 07:34:55 51°15.37 2°54.757 10.3 11.5 9 7.3
2008-03-07 07:35:00 51°15.386 2°54.761 11 11.5 9 7.5
2008-03-07 07:35:05 51°15.402 2°54.765 11.5 11.6 9 7.6
2008-03-07 07:35:10 51°15.417 2°54.769 12.1 11.6 10 7.5
2008-03-07 07:35:15 51°15.433 2°54.773 12.4 11.6 10 7.7
2008-03-07 07:35:20 51°15.449 2°54.777 12.9 11.5 9 7.6
2008-03-07 07:35:25 51°15.465 2°54.782 12.4 11.5 9 7.8
2008-03-07 07:35:30 51°15.481 2°54.785 12.6 11.6 8 7.7
2008-03-07 07:35:35 51°15.497 2°54.789 12.2 11.6 8 7.7
2008-03-07 07:35:40 51°15.512 2°54.793 11.6 11.6 9 7.7
2008-03-07 07:35:45 51°15.528 2°54.797 12 11.6 9 7.8
2008-03-07 07:35:50 51°15.544 2°54.802 12.6 11.6 11 7.7
2008-03-07 07:35:55 51°15.56 2°54.807 13.9 11.6 11 8
2008-03-07 07:36:00 51°15.576 2°54.813 14.7 11.5 13 8
2008-03-07 07:36:05 51°15.591 2°54.818 15.3 11.6 11 8
2008-03-07 07:36:10 51°15.607 2°54.824 15.2 11.5 14 8.1
2008-03-07 07:36:15 51°15.622 2°54.831 15.3 11.5 17 8
2008-03-07 07:36:20 51°15.637 2°54.838 18 11.4 18 8.1
2008-03-07 07:36:25 51°15.652 2°54.847 20.3 11.4 19 8.2
2008-03-07 07:36:30 51°15.667 2°54.855 21.2 11.4 21 8.3
2008-03-07 07:36:35 51°15.682 2°54.864 22.5 11.5 19 8.1
2008-03-07 07:36:40 51°15.697 2°54.873 22.6 11.4 22 8.2
2008-03-07 07:36:45 51°15.712 2°54.881 23.6 11.4 18 8.2
2008-03-07 07:36:50 51°15.726 2°54.891 23.1 11.4 23 8.2
2008-03-07 07:36:55 51°15.741 2°54.9 24.2 11.4 20 8.3
2008-03-07 07:37:00 51°15.756 2°54.909 24.2 11.3 22 8.3
2008-03-07 07:37:05 51°15.77 2°54.92 23.6 11.3 26 8.4
2008-03-07 07:37:10 51°15.783 2°54.933 26.5 11.3 30 8.4
2008-03-07 07:37:15 51°15.797 2°54.946 30.6 11.3 32 8.7
2008-03-07 07:37:20 51°15.809 2°54.96 31.9 11.2 35 8.4
2008-03-07 07:37:25 51°15.821 2°54.977 35.7 11.1 44 8.5
2008-03-07 07:37:30 51°15.831 2°54.995 41.2 11.2 47 8.5
2008-03-07 07:37:35 51°15.841 2°55.013 46.5 11.2 48 8.6
2008-03-07 07:37:40 51°15.851 2°55.033 48.2 11.1 53 8.7
2008-03-07 07:37:45 51°15.859 2°55.053 50.9 11.2 56 8.7
2008-03-07 07:37:50 51°15.867 2°55.075 54.3 11.2 60 8.6
2008-03-07 07:37:55 51°15.875 2°55.096 57.5 11.2 58 8.6
2008-03-07 07:38:00 51°15.882 2°55.118 57.7 11.3 63 8.6
2008-03-07 07:38:05 51°15.89 2°55.14 61 11.2 62 8.6
2008-03-07 07:38:10 51°15.897 2°55.163 61.3 11.3 64 8.7
2008-03-07 07:38:15 51°15.904 2°55.185 61.9 11.3 63 8.7
2008-03-07 07:38:20 51°15.911 2°55.207 62.3 11.3 64 8.6
2008-03-07 07:38:25 51°15.918 2°55.229 62.5 11.3 62 8.6
2008-03-07 07:38:30 51°15.926 2°55.251 61.5 11.2 61 8.5
2008-03-07 07:38:35 51°15.933 2°55.273 60.6 11.3 61 8.5
2008-03-07 07:38:40 51°15.941 2°55.295 60.1 11.3 61 8.5
2008-03-07 07:38:45 51°15.948 2°55.317 60.1 11.4 62 8.6
2008-03-07 07:38:50 51°15.956 2°55.339 60.3 11.3 62 8.5
2008-03-07 07:38:55 51°15.963 2°55.361 60.9 11.3 62 8.6
2008-03-07 07:39:00 51°15.97 2°55.383 60.9 11.4 62 8.5
2008-03-07 07:39:05 51°15.978 2°55.405 61.1 11.4 62 8.5
2008-03-07 07:39:10 51°15.986 2°55.427 61 11.3 60 8.6
2008-03-07 07:39:15 51°15.993 2°55.449 60 11.3 60 8.6
2008-03-07 07:39:20 51°16.001 2°55.47 59.4 11.4 60 8.5
2008-03-07 07:39:25 51°16.01 2°55.491 59.1 11.4 58 8.6
2008-03-07 07:39:30 51°16.018 2°55.513 58 11.3 58 8.5
2008-03-07 07:39:35 51°16.026 2°55.534 57.7 11.2 57 8.6
2008-03-07 07:39:40 51°16.034 2°55.555 57.2 11.3 60 8.6
2008-03-07 07:39:45 51°16.043 2°55.576 58.2 11.3 57 8.6
2008-03-07 07:39:50 51°16.051 2°55.598 57.6 11.3 60 8.6
2008-03-07 07:39:55 51°16.058 2°55.62 58.2 11.2 61 8.5
2008-03-07 07:40:00 51°16.066 2°55.642 59.6 11.3 62 8.6
2008-03-07 07:40:05 51°16.072 2°55.664 60.6 11.2 64 8.6
2008-03-07 07:40:10 51°16.079 2°55.687 62.2 11.3 65 8.6
2008-03-07 07:40:15 51°16.086 2°55.709 63.3 11.3 63 8.5
2008-03-07 07:40:20 51°16.093 2°55.732 63.5 11.3 65 8.6
2008-03-07 07:40:25 51°16.1 2°55.754 63.5 11.3 65 8.7
2008-03-07 07:40:30 51°16.107 2°55.777 63.9 11.2 64 8.6
2008-03-07 07:40:35 51°16.113 2°55.799 63 11.2 63 8.6
2008-03-07 07:40:40 51°16.121 2°55.821 62.5 11.3 63 8.7
2008-03-07 07:40:45 51°16.127 2°55.844 62.4 11.4 65 8.6
2008-03-07 07:40:50 51°16.134 2°55.866 63.1 11.2 63 8.6
2008-03-07 07:40:55 51°16.141 2°55.889 63.2 11.1 66 8.5
2008-03-07 07:41:00 51°16.147 2°55.911 64 11.3 65 8.6
2008-03-07 07:41:05 51°16.155 2°55.933 64.2 11.3 61 8.6
2008-03-07 07:41:10 51°16.161 2°55.956 62.3 11.2 67 8.5
2008-03-07 07:41:15 51°16.168 2°55.978 64.3 11.2 61 8.6
2008-03-07 07:41:20 51°16.176 2°56 62.9 11.3 62 8.5
2008-03-07 07:41:25 51°16.183 2°56.022 61.6 11.2 64 8.5
2008-03-07 07:41:30 51°16.191 2°56.044 62.3 11.2 61 8.6
2008-03-07 07:41:35 51°16.197 2°56.066 61.1 11.3 63 8.5
2008-03-07 07:41:40 51°16.205 2°56.088 61.6 11.4 61 8.5
2008-03-07 07:41:45 51°16.213 2°56.11 61 11.3 62 8.5
2008-03-07 07:41:50 51°16.22 2°56.132 60.6 11.3 61 8.5
2008-03-07 07:41:55 51°16.228 2°56.153 60.8 11.2 61 8.5
2008-03-07 07:42:00 51°16.235 2°56.175 60.4 11.3 61 8.5
2008-03-07 07:42:05 51°16.242 2°56.197 60.4 11.3 63 8.6
2008-03-07 07:42:10 51°16.25 2°56.219 61.3 11.3 60 8.5
2008-03-07 07:42:15 51°16.257 2°56.241 60.6 11.3 63 8.5
2008-03-07 07:42:20 51°16.265 2°56.263 61.1 11.3 61 8.5
2008-03-07 07:42:25 51°16.272 2°56.285 61.1 11.3 61 8.5
2008-03-07 07:42:30 51°16.28 2°56.307 60.5 11.2 62 8.5
2008-03-07 07:42:35 51°16.288 2°56.328 61 11.3 61 8.5
2008-03-07 07:42:40 51°16.295 2°56.35 60.4 11.3 61 8.5
2008-03-07 07:42:45 51°16.303 2°56.372 60.1 11.3 61 8.6
2008-03-07 07:42:50 51°16.31 2°56.394 60.9 11.3 63 8.5
2008-03-07 07:42:55 51°16.317 2°56.416 62.1 11.4 64 8.5
2008-03-07 07:43:00 51°16.324 2°56.439 61.8 11.4 65 8.5
2008-03-07 07:43:05 51°16.331 2°56.461 63.4 11.4 61 8.5
2008-03-07 07:43:10 51°16.338 2°56.484 62.5 11.3 63 8.5
2008-03-07 07:43:15 51°16.346 2°56.505 62.8 11.4 62 8.5
2008-03-07 07:43:20 51°16.352 2°56.528 61.7 11.4 64 8.4
2008-03-07 07:43:25 51°16.36 2°56.55 62.2 11.3 63 8.5
2008-03-07 07:43:30 51°16.367 2°56.573 62.8 11.3 63 8.5
2008-03-07 07:43:35 51°16.375 2°56.594 62.4 11.2 60 8.5
2008-03-07 07:43:40 51°16.382 2°56.616 61.3 11.2 63 8.5
2008-03-07 07:43:45 51°16.389 2°56.638 61.6 11.3 61 8.5
2008-03-07 07:43:50 51°16.397 2°56.66 61.4 11.4 61 8.5
2008-03-07 07:43:55 51°16.404 2°56.683 60.9 11.3 61 8.6
2008-03-07 07:44:00 51°16.412 2°56.705 61.9 11.3 61 8.7
2008-03-07 07:44:05 51°16.419 2°56.727 61.5 11.4 62 8.7
2008-03-07 07:44:10 51°16.427 2°56.749 62 11.5 62 8.5
2008-03-07 07:44:15 51°16.434 2°56.772 61.6 11.4 63 8.5
2008-03-07 07:44:20 51°16.441 2°56.794 62.4 11.4 63 8.5
2008-03-07 07:44:25 51°16.448 2°56.817 62.8 11.5 63 8.7
2008-03-07 07:44:30 51°16.455 2°56.839 62.9 11.5 64 8.5
2008-03-07 07:44:35 51°16.462 2°56.862 63.1 11.4 65 8.6
2008-03-07 07:44:40 51°16.469 2°56.885 63.8 11.4 62 8.5
2008-03-07 07:44:45 51°16.476 2°56.907 62.9 11.4 64 8.6
2008-03-07 07:44:50 51°16.483 2°56.93 63.3 11.3 63 8.5
2008-03-07 07:44:55 51°16.491 2°56.952 63.3 11.4 61 8.5
2008-03-07 07:45:00 51°16.499 2°56.973 62 11.4 60 8.5
2008-03-07 07:45:05 51°16.506 2°56.996 60.8 11.4 62 8.5
2008-03-07 07:45:10 51°16.514 2°57.017 60.9 11.2 58 8.5
2008-03-07 07:45:15 51°16.521 2°57.039 60.2 11.3 61 8.5
2008-03-07 07:45:20 51°16.53 2°57.06 60.4 11.4 58 8.5
2008-03-07 07:45:25 51°16.537 2°57.083 59.6 11.4 62 8.5
2008-03-07 07:45:30 51°16.545 2°57.104 60.4 11.3 60 8.4
2008-03-07 07:45:35 51°16.552 2°57.127 60.8 11.3 65 8.5
2008-03-07 07:45:40 51°16.559 2°57.149 62.1 11.3 61 8.4
2008-03-07 07:45:45 51°16.567 2°57.171 61.6 11.4 61 8.4
2008-03-07 07:45:50 51°16.574 2°57.193 61.3 11.4 63 8.4
2008-03-07 07:45:55 51°16.582 2°57.215 62.4 11.3 61 8.5
2008-03-07 07:46:00 51°16.589 2°57.237 61 11.3 63 8.4
2008-03-07 07:46:05 51°16.598 2°57.259 61.5 11.4 58 8.5
2008-03-07 07:46:10 51°16.605 2°57.281 60.1 11.4 60 8.5
2008-03-07 07:46:15 51°16.613 2°57.303 59.9 11.4 60 8.5
2008-03-07 07:46:20 51°16.622 2°57.324 60.6 11.4 57 8.5
2008-03-07 07:46:25 51°16.628 2°57.347 59.4 11.4 63 8.5
2008-03-07 07:46:30 51°16.637 2°57.368 61 11.4 58 8.5
2008-03-07 07:46:35 51°16.644 2°57.39 60.2 11.4 63 8.5
2008-03-07 07:46:40 51°16.651 2°57.413 61.6 11.4 61 8.5
2008-03-07 07:46:45 51°16.658 2°57.435 62 11.4 65 8.5
2008-03-07 07:46:50 51°16.665 2°57.458 63 11.4 63 8.6
2008-03-07 07:46:55 51°16.673 2°57.48 63.4 11.5 64 8.5
2008-03-07 07:47:00 51°16.68 2°57.503 62.8 11.4 63 8.5
2008-03-07 07:47:05 51°16.687 2°57.525 62.8 11.4 63 8.5
2008-03-07 07:47:10 51°16.694 2°57.548 62.3 11.4 64 8.5
2008-03-07 07:47:15 51°16.702 2°57.57 63.1 11.4 61 8.5
2008-03-07 07:47:20 51°16.709 2°57.593 62.1 11.5 65 8.5
2008-03-07 07:47:25 51°16.717 2°57.614 62.9 11.5 59 8.4
2008-03-07 07:47:30 51°16.724 2°57.637 61.1 11.4 63 8.4
2008-03-07 07:47:35 51°16.732 2°57.659 61.1 11.4 60 8.5
2008-03-07 07:47:40 51°16.74 2°57.681 60.9 11.4 61 8.4
2008-03-07 07:47:45 51°16.748 2°57.703 60.5 11.4 60 8.4
2008-03-07 07:47:50 51°16.756 2°57.725 60.7 11.5 60 8.4
2008-03-07 07:47:55 51°16.764 2°57.746 59.7 11.3 59 8.4
2008-03-07 07:48:00 51°16.771 2°57.769 59.6 11.4 64 8.5
2008-03-07 07:48:05 51°16.78 2°57.79 61.6 11.5 58 8.4
2008-03-07 07:48:10 51°16.787 2°57.813 60.2 11.5 64 8.4
2008-03-07 07:48:15 51°16.794 2°57.835 61.9 11.3 61 8.4
2008-03-07 07:48:20 51°16.801 2°57.858 62.8 11.4 64 8.4
2008-03-07 07:48:25 51°16.809 2°57.88 63 11.4 63 8.4
2008-03-07 07:48:30 51°16.816 2°57.903 63.1 11.5 63 8.3
2008-03-07 07:48:36 51°16.825 2°57.93 62.8 11.4 63 8.5
2008-03-07 07:48:40 51°16.831 2°57.948 62.6 11.4 61 8.3
2008-03-07 07:48:45 51°16.838 2°57.97 62.1 11.4 62 8.3
2008-03-07 07:48:50 51°16.846 2°57.992 62 11.4 61 8.3
2008-03-07 07:48:55 51°16.854 2°58.014 61.6 11.5 62 8.2
2008-03-07 07:49:00 51°16.861 2°58.037 61.6 11.5 63 8.2
2008-03-07 07:49:05 51°16.868 2°58.059 62.4 11.4 62 8.2
2008-03-07 07:49:10 51°16.875 2°58.082 62.1 11.4 63 8.3
2008-03-07 07:49:15 51°16.883 2°58.104 62.5 11.4 62 8.3
2008-03-07 07:49:20 51°16.89 2°58.127 62.6 11.4 63 8.2
2008-03-07 07:49:25 51°16.897 2°58.149 62.5 11.4 62 8.2
2008-03-07 07:49:30 51°16.905 2°58.172 62.4 11.5 61 8.2
2008-03-07 07:49:35 51°16.912 2°58.194 61.8 11.5 63 8.2
2008-03-07 07:49:40 51°16.92 2°58.217 62.1 11.5 63 8.2
2008-03-07 07:49:45 51°16.927 2°58.239 62.4 11.4 63 8.2
2008-03-07 07:49:50 51°16.934 2°58.262 62.6 11.4 63 8.3
2008-03-07 07:49:55 51°16.942 2°58.284 62.8 11.5 62 8.2
2008-03-07 07:50:00 51°16.949 2°58.307 62.3 11.6 62 8.3
2008-03-07 07:50:05 51°16.957 2°58.329 62.1 11.5 61 8.2
2008-03-07 07:50:10 51°16.964 2°58.352 61.8 11.5 64 8.2
2008-03-07 07:50:15 51°16.972 2°58.374 62.6 11.5 60 8.1
2008-03-07 07:50:20 51°16.98 2°58.396 61.6 11.5 60 8.2
2008-03-07 07:50:25 51°16.987 2°58.419 60.9 11.5 61 8.2
2008-03-07 07:50:30 51°16.996 2°58.44 60.5 11.5 59 8.2
2008-03-07 07:50:35 51°17.004 2°58.463 59.7 11.5 60 8.2
2008-03-07 07:50:40 51°17.012 2°58.484 59.6 11.5 59 8.2
2008-03-07 07:50:45 51°17.02 2°58.506 59.1 11.5 60 8.2
2008-03-07 07:50:50 51°17.028 2°58.528 59.2 11.5 59 8.3
2008-03-07 07:50:56 51°17.037 2°58.554 58.9 11.4 61 8.2
2008-03-07 07:51:00 51°17.043 2°58.572 59.7 11.5 62 8.2
2008-03-07 07:51:05 51°17.052 2°58.594 60.6 11.5 59 8.2
2008-03-07 07:51:10 51°17.059 2°58.616 60 11.4 62 8.2
2008-03-07 07:51:15 51°17.067 2°58.638 60.7 11.3 62 8.2
2008-03-07 07:51:20 51°17.074 2°58.66 61.4 11.4 61 8.2
2008-03-07 07:51:25 51°17.082 2°58.683 61.6 11.5 61 8.2
2008-03-07 07:51:30 51°17.089 2°58.705 61.6 11.6 61 8.2
2008-03-07 07:51:35 51°17.097 2°58.727 61.4 11.4 63 8.2
2008-03-07 07:51:40 51°17.103 2°58.75 62.2 11.4 64 8.3
2008-03-07 07:51:45 51°17.111 2°58.772 63.3 11.4 61 8.2
2008-03-07 07:51:50 51°17.117 2°58.795 62.4 11.4 64 8.2
2008-03-07 07:51:55 51°17.125 2°58.817 63.2 11.4 60 8.2
2008-03-07 07:52:00 51°17.132 2°58.839 62.4 11.4 64 8.2
2008-03-07 07:52:05 51°17.139 2°58.862 62.4 11.5 62 8.2
2008-03-07 07:52:10 51°17.147 2°58.885 61.9 11.6 62 8.2
2008-03-07 07:52:15 51°17.154 2°58.907 61.8 11.4 61 8.2
2008-03-07 07:52:20 51°17.162 2°58.929 62.1 11.4 63 8.2
2008-03-07 07:52:25 51°17.169 2°58.951 62.4 11.5 61 8.3
2008-03-07 07:52:30 51°17.177 2°58.974 62 11.6 63 8.2
2008-03-07 07:52:35 51°17.185 2°58.997 62.2 11.7 60 8.2
2008-03-07 07:52:40 51°17.192 2°59.019 61.1 11.5 62 8.2
2008-03-07 07:52:45 51°17.199 2°59.042 61.4 11.6 64 8.3
2008-03-07 07:52:50 51°17.208 2°59.064 62.8 11.6 59 8.2
2008-03-07 07:52:55 51°17.214 2°59.087 60.7 11.6 65 8.2
2008-03-07 07:53:00 51°17.222 2°59.109 62.3 11.5 60 8.3
2008-03-07 07:53:05 51°17.23 2°59.131 61.2 11.5 61 8.3
2008-03-07 07:53:10 51°17.238 2°59.154 61 11.5 61 8.3
2008-03-07 07:53:16 51°17.248 2°59.18 61.2 11.6 58 8.3
2008-03-07 07:53:20 51°17.254 2°59.199 59.3 11.6 63 8.2
2008-03-07 07:53:25 51°17.262 2°59.22 60.9 11.5 57 8.3
2008-03-07 07:53:30 51°17.27 2°59.242 59.5 11.4 62 8.3
2008-03-07 07:53:35 51°17.277 2°59.264 60.9 11.4 60 8.3
2008-03-07 07:53:40 51°17.285 2°59.286 61.1 11.3 62 8.3
2008-03-07 07:53:45 51°17.291 2°59.308 61.6 11.1 63 8.3
2008-03-07 07:53:50 51°17.298 2°59.33 63 11 63 8.3
2008-03-07 07:53:55 51°17.306 2°59.351 63 10.9 61 8.3
2008-03-07 07:54:00 51°17.313 2°59.372 61.5 10.7 62 8.4
2008-03-07 07:54:05 51°17.32 2°59.392 61.4 10.6 60 8.3
2008-03-07 07:54:10 51°17.327 2°59.412 60.8 10.4 60 8.4
2008-03-07 07:54:15 51°17.334 2°59.432 60.1 10.4 60 8.3
2008-03-07 07:54:20 51°17.342 2°59.452 60.2 10.5 60 8.4
2008-03-07 07:54:25 51°17.348 2°59.472 60.1 10.4 62 8.3
2008-03-07 07:54:30 51°17.356 2°59.491 60.8 10.2 61 8.4
2008-03-07 07:54:35 51°17.362 2°59.511 60.4 10.1 61 8.3
2008-03-07 07:54:40 51°17.37 2°59.53 60.8 9.9 59 8.3
2008-03-07 07:54:45 51°17.375 2°59.549 60.3 9.6 63 8.4
2008-03-07 07:54:50 51°17.382 2°59.567 61.8 9.3 60 8.3
2008-03-07 07:54:55 51°17.388 2°59.585 61.4 9.2 61 8.4
2008-03-07 07:55:00 51°17.394 2°59.603 61 9 62 8.4
2008-03-07 07:55:05 51°17.4 2°59.62 61.5 8.9 61 8.4
2008-03-07 07:55:10 51°17.406 2°59.637 61.3 8.8 61 8.4
2008-03-07 07:55:15 51°17.412 2°59.654 61.2 8.7 62 8.4
2008-03-07 07:55:20 51°17.417 2°59.67 61.2 8.6 61 8.4
2008-03-07 07:55:25 51°17.423 2°59.687 60.8 8.5 60 8.4
2008-03-07 07:55:30 51°17.429 2°59.703 60.7 8.5 60 8.5
2008-03-07 07:55:36 51°17.436 2°59.723 60.9 8.5 62 8.4
2008-03-07 07:55:40 51°17.44 2°59.736 61 8.4 60 8.4
2008-03-07 07:55:45 51°17.446 2°59.752 60.9 8.3 61 8.4
2008-03-07 07:55:50 51°17.451 2°59.768 60.9 8.4 61 8.4
2008-03-07 07:55:55 51°17.457 2°59.784 60.9 8.3 61 8.4
2008-03-07 07:56:00 51°17.462 2°59.8 60.9 8.3 60 8.4
2008-03-07 07:56:05 51°17.468 2°59.816 60.9 8.3 62 8.4
2008-03-07 07:56:10 51°17.474 2°59.832 60.9 8.2 59 8.4
2008-03-07 07:56:15 51°17.479 2°59.848 60.7 8.2 63 8.4
2008-03-07 07:56:20 51°17.485 2°59.864 61.1 8.3 59 8.5
2008-03-07 07:56:25 51°17.49 2°59.88 61 8.2 63 8.5
2008-03-07 07:56:30 51°17.496 2°59.896 61.3 8.3 61 8.4
2008-03-07 07:56:35 51°17.501 2°59.912 61.5 8.2 61 8.4
2008-03-07 07:56:40 51°17.507 2°59.928 61.5 8.2 60 8.5
2008-03-07 07:56:45 51°17.512 2°59.944 61.5 8.2 63 8.4
2008-03-07 07:56:50 51°17.518 2°59.96 61.7 8.2 59 8.4
2008-03-07 07:56:55 51°17.523 2°59.976 60.9 8.3 64 8.4
2008-03-07 07:57:00 51°17.528 2°59.992 61.8 8.2 61 8.4
2008-03-07 07:57:05 51°17.534 3°0.008 61.4 8.2 61 8.5
2008-03-07 07:57:10 51°17.539 3°0.024 61.4 8.2 60 8.4
2008-03-07 07:57:15 51°17.545 3°0.04 61.7 8.2 62 8.3
2008-03-07 07:57:20 51°17.55 3°0.056 61.2 8.2 62 8.4
2008-03-07 07:57:25 51°17.556 3°0.072 61.4 8.2 60 8.3
2008-03-07 07:57:30 51°17.561 3°0.088 61.2 8.2 61 8.3
2008-03-07 07:57:35 51°17.566 3°0.103 61.4 8.2 61 8.3
2008-03-07 07:57:40 51°17.572 3°0.12 61.4 8.3 61 8.3
2008-03-07 07:57:45 51°17.578 3°0.136 61.3 8.2 62 8.4
2008-03-07 07:57:50 51°17.583 3°0.152 61.6 8.2 61 8.4
2008-03-07 07:57:55 51°17.588 3°0.168 61.4 8.3 61 8.3
2008-03-07 07:58:00 51°17.594 3°0.184 61.8 8.3 63 8.3
2008-03-07 07:58:05 51°17.599 3°0.2 62 8.2 62 8.3
2008-03-07 07:58:10 51°17.605 3°0.216 62.3 8.3 61 8.4
2008-03-07 07:58:15 51°17.61 3°0.232 61.7 8.3 61 8.3
2008-03-07 07:58:20 51°17.616 3°0.248 61.4 8.3 61 8.3
2008-03-07 07:58:25 51°17.621 3°0.264 61.4 8.2 61 8.4
2008-03-07 07:58:30 51°17.626 3°0.28 61.3 8.3 62 8.4
2008-03-07 07:58:35 51°17.632 3°0.296 61.4 8.2 61 8.3
2008-03-07 07:58:40 51°17.638 3°0.312 61.4 8.2 62 8.3
2008-03-07 07:58:45 51°17.643 3°0.328 61.4 8.3 60 8.3
2008-03-07 07:58:50 51°17.649 3°0.345 61 8.3 62 8.2
2008-03-07 07:58:55 51°17.654 3°0.36 61.1 8.2 61 8.2
2008-03-07 07:59:00 51°17.66 3°0.377 61.1 8.2 62 8.3
2008-03-07 07:59:05 51°17.665 3°0.393 61.4 8.3 61 8.2
2008-03-07 07:59:10 51°17.671 3°0.409 61.6 8.3 62 8.2
2008-03-07 07:59:15 51°17.677 3°0.425 61.4 8.2 62 8.3
2008-03-07 07:59:20 51°17.682 3°0.441 61.4 8.3 61 8.3
2008-03-07 07:59:25 51°17.688 3°0.457 61.6 8.3 61 8.2
2008-03-07 07:59:30 51°17.693 3°0.473 61.4 8.3 61 8.2
2008-03-07 07:59:35 51°17.699 3°0.489 61.4 8.3 62 8.1
2008-03-07 07:59:40 51°17.704 3°0.505 61.1 8.3 61 8.2
2008-03-07 07:59:45 51°17.71 3°0.522 61.3 8.3 61 8.3
2008-03-07 07:59:50 51°17.715 3°0.537 61.2 8.3 60 8.3
2008-03-07 07:59:55 51°17.721 3°0.554 60.9 8.3 61 8.2
2008-03-07 08:00:00 51°17.727 3°0.569 61.2 8.2 61 8.2
2008-03-07 08:00:05 51°17.732 3°0.586 61.1 8.2 62 8.5
2008-03-07 08:00:10 51°17.737 3°0.602 61.5 8.2 61 8.3
2008-03-07 08:00:15 51°17.743 3°0.617 61.4 8.2 62 8.2
2008-03-07 08:00:20 51°17.748 3°0.633 61.2 8.2 62 8.2
2008-03-07 08:00:25 51°17.754 3°0.649 61.6 8.2 61 8.3
2008-03-07 08:00:30 51°17.759 3°0.666 61.2 8.2 62 8.2
2008-03-07 08:00:35 51°17.765 3°0.681 61.6 8.2 61 8.2
2008-03-07 08:00:40 51°17.77 3°0.698 61.1 8.2 63 8.1
2008-03-07 08:00:45 51°17.775 3°0.713 61.1 8.2 61 8.1
2008-03-07 08:00:50 51°17.781 3°0.73 61.5 8.2 62 8.1
2008-03-07 08:00:55 51°17.786 3°0.745 61.6 8.3 62 8.2
2008-03-07 08:01:00 51°17.792 3°0.762 61.2 8.2 61 8.2
2008-03-07 08:01:05 51°17.797 3°0.777 60.9 8.2 61 8.2
2008-03-07 08:01:10 51°17.803 3°0.793 61.6 8.2 60 8.2
2008-03-07 08:01:15 51°17.808 3°0.81 60.9 8.2 62 8.2
2008-03-07 08:01:20 51°17.814 3°0.825 61 8.2 60 8.1
2008-03-07 08:01:25 51°17.819 3°0.841 60.7 8 63 8.2
2008-03-07 08:01:30 51°17.824 3°0.856 60.7 7.7 60 8.1
2008-03-07 08:01:35 51°17.829 3°0.871 61.4 7.7 63 8.2
2008-03-07 08:01:40 51°17.834 3°0.885 61.3 7.5 61 8.2
2008-03-07 08:01:45 51°17.839 3°0.9 61.6 7.4 63 8.2
2008-03-07 08:01:50 51°17.844 3°0.915 62.1 7.3 61 8.3
2008-03-07 08:01:55 51°17.849 3°0.929 61.9 7.2 63 8.2
2008-03-07 08:02:00 51°17.853 3°0.943 62.1 7.2 63 8.3
2008-03-07 08:02:05 51°17.858 3°0.957 61.8 7.1 61 8.2
2008-03-07 08:02:10 51°17.862 3°0.971 61.9 7.1 64 8.3
2008-03-07 08:02:15 51°17.867 3°0.984 61.7 7 60 8.3
2008-03-07 08:02:20 51°17.871 3°0.998 61.1 6.9 64 8.2
2008-03-07 08:02:25 51°17.876 3°1.011 62.1 6.9 63 8.2
2008-03-07 08:02:30 51°17.88 3°1.025 62.3 6.9 61 8.3
2008-03-07 08:02:35 51°17.884 3°1.038 61.2 6.8 62 8.3
2008-03-07 08:02:40 51°17.889 3°1.051 62.2 6.8 61 8.3
2008-03-07 08:02:45 51°17.893 3°1.065 61.5 6.8 63 8.3
2008-03-07 08:02:50 51°17.898 3°1.078 62.2 6.8 61 8.3
2008-03-07 08:02:55 51°17.902 3°1.091 61.6 6.8 63 8.3
2008-03-07 08:03:00 51°17.907 3°1.104 62 6.8 61 8.3
2008-03-07 08:03:05 51°17.911 3°1.118 61.6 6.8 63 8.4
2008-03-07 08:03:10 51°17.916 3°1.131 62.1 6.8 63 8.3
2008-03-07 08:03:15 51°17.92 3°1.144 61.6 6.7 62 8.2
2008-03-07 08:03:20 51°17.924 3°1.157 61.8 6.8 62 8.4
2008-03-07 08:03:25 51°17.929 3°1.17 61.5 6.7 61 8.3
2008-03-07 08:03:30 51°17.933 3°1.184 61.4 6.8 62 8.2
2008-03-07 08:03:35 51°17.937 3°1.197 61.1 6.7 61 8.3
2008-03-07 08:03:40 51°17.942 3°1.21 61.1 6.7 63 8.3
2008-03-07 08:03:45 51°17.946 3°1.223 61.2 6.7 61 8.2
2008-03-07 08:03:50 51°17.95 3°1.236 61.5 6.7 64 8.3
2008-03-07 08:03:55 51°17.955 3°1.249 61.5 6.7 60 8.2
2008-03-07 08:04:00 51°17.959 3°1.262 61.6 6.7 64 8.2
2008-03-07 08:04:05 51°17.964 3°1.275 61.4 6.7 59 7.8
2008-03-07 08:04:10 51°17.968 3°1.289 61.6 6.7 65 7.8
2008-03-07 08:04:15 51°17.973 3°1.301 61.3 6.6 58 7.9
2008-03-07 08:04:20 51°17.976 3°1.314 61.6 6.7 65 8
2008-03-07 08:04:25 51°17.981 3°1.327 61.5 6.6 61 8
2008-03-07 08:04:30 51°17.985 3°1.34 61.9 6.7 65 8.1
2008-03-07 08:04:35 51°17.99 3°1.353 61.9 6.6 60 8.2
2008-03-07 08:04:40 51°17.994 3°1.367 61.8 6.7 64 8.3
2008-03-07 08:04:45 51°17.998 3°1.379 61.7 6.7 61 8.4
2008-03-07 08:04:50 51°18.003 3°1.392 61.4 6.7 62 8.4
2008-03-07 08:04:55 51°18.007 3°1.405 61.4 6.7 61 8.4
2008-03-07 08:05:00 51°18.011 3°1.418 61.1 6.7 62 8.4
2008-03-07 08:05:05 51°18.016 3°1.431 61.1 6.7 61 8.5
2008-03-07 08:05:10 51°18.02 3°1.445 60.9 6.7 63 8.5
2008-03-07 08:05:15 51°18.025 3°1.458 61.4 6.7 60 8.5
2008-03-07 08:05:20 51°18.029 3°1.471 61.3 6.7 63 7.9
2008-03-07 08:05:25 51°18.033 3°1.484 61.7 6.7 61 7.9
2008-03-07 08:05:30 51°18.038 3°1.497 61.6 6.7 62 7.9
2008-03-07 08:05:35 51°18.042 3°1.51 61.2 6.7 62 7.8
2008-03-07 08:05:40 51°18.047 3°1.523 61.5 6.7 61 7.8
2008-03-07 08:05:45 51°18.051 3°1.536 60.9 6.7 62 7.7
2008-03-07 08:05:50 51°18.056 3°1.549 61.3 6.7 61 7.9
2008-03-07 08:05:55 51°18.06 3°1.562 60.9 6.7 61 8
2008-03-07 08:06:00 51°18.064 3°1.575 60.9 6.7 61 8.1
2008-03-07 08:06:05 51°18.069 3°1.588 61.1 6.7 63 8.1
2008-03-07 08:06:10 51°18.073 3°1.601 61.6 6.7 63 8.4
2008-03-07 08:06:15 51°18.077 3°1.614 61.4 6.7 61 8.5
2008-03-07 08:06:20 51°18.082 3°1.627 61.8 6.8 62 8.4
2008-03-07 08:06:25 51°18.086 3°1.64 61.9 6.7 63 8.5
2008-03-07 08:06:30 51°18.09 3°1.654 61.8 6.7 62 8.5
2008-03-07 08:06:35 51°18.094 3°1.666 62.1 6.5 63 8.5
2008-03-07 08:06:40 51°18.098 3°1.678 61.9 6.2 62 8.6
2008-03-07 08:06:45 51°18.101 3°1.69 62.1 5.9 63 8.6
2008-03-07 08:06:50 51°18.105 3°1.701 62.2 5.6 63 8.5
2008-03-07 08:06:55 51°18.108 3°1.712 62.6 5.4 64 8.4
2008-03-07 08:07:00 51°18.111 3°1.722 63.2 5.1 65 8.4
2008-03-07 08:07:05 51°18.114 3°1.732 63.8 4.9 65 8.5
2008-03-07 08:07:10 51°18.117 3°1.741 64.3 4.7 65 8.3
2008-03-07 08:07:15 51°18.12 3°1.75 64.5 4.5 65 8.3
2008-03-07 08:07:20 51°18.122 3°1.759 65.2 4.3 66 8.5
2008-03-07 08:07:25 51°18.124 3°1.768 65.8 4.2 66 8.4
2008-03-07 08:07:30 51°18.126 3°1.776 65.9 4 69 8.4
2008-03-07 08:07:35 51°18.129 3°1.784 66 3.9 66 8.4
2008-03-07 08:07:40 51°18.131 3°1.792 65.9 3.8 68 8.5
2008-03-07 08:07:45 51°18.133 3°1.799 65.9 3.6 66 8.6
2008-03-07 08:07:50 51°18.135 3°1.806 65.8 3.5 68 8.4
2008-03-07 08:07:55 51°18.137 3°1.814 65.5 3.4 65 8.5
2008-03-07 08:08:00 51°18.139 3°1.82 65 3.3 67 8.5
2008-03-07 08:08:05 51°18.141 3°1.827 64.3 3.2 64 8.2
2008-03-07 08:08:10 51°18.143 3°1.833 63.9 3.2 65 8.2
2008-03-07 08:08:15 51°18.145 3°1.839 63.4 3.1 61 8.2
2008-03-07 08:08:20 51°18.147 3°1.845 62.9 3.1 66 8.3
2008-03-07 08:08:25 51°18.149 3°1.851 62.7 3 62 8.4
2008-03-07 08:08:30 51°18.15 3°1.857 62.3 2.9 63 8.3
2008-03-07 08:08:35 51°18.152 3°1.862 62.2 2.9 61 8.3
2008-03-07 08:08:40 51°18.154 3°1.868 62 2.8 63 8.2
2008-03-07 08:08:45 51°18.156 3°1.874 62.1 2.8 63 8.2
2008-03-07 08:08:50 51°18.157 3°1.879 62.3 2.8 65 8.2
2008-03-07 08:08:55 51°18.159 3°1.885 62.6 2.7 64 8.3
2008-03-07 08:09:00 51°18.161 3°1.89 63 2.7 65 8.3
2008-03-07 08:09:05 51°18.163 3°1.895 63.4 2.7 64 8.2
2008-03-07 08:09:10 51°18.164 3°1.901 63.6 2.6 66 8.2
2008-03-07 08:09:15 51°18.166 3°1.906 63.7 2.6 64 8.2
2008-03-07 08:09:20 51°18.167 3°1.911 63.9 2.5 65 8.2
2008-03-07 08:09:25 51°18.169 3°1.916 63.8 2.5 65 8.2
2008-03-07 08:09:30 51°18.17 3°1.921 63.9 2.5 65 8.2
2008-03-07 08:09:35 51°18.171 3°1.926 63.9 2.5 66 8.2
2008-03-07 08:09:40 51°18.173 3°1.93 63.8 2.4 64 8.2
2008-03-07 08:09:45 51°18.175 3°1.935 63.4 2.4 61 8.2
2008-03-07 08:09:50 51°18.176 3°1.94 63.2 2.3 66 8.1
2008-03-07 08:09:55 51°18.178 3°1.944 63 2.4 61 8.2
2008-03-07 08:10:00 51°18.179 3°1.949 62.8 2.5 64 8.2
2008-03-07 08:10:05 51°18.181 3°1.954 62.5 2.6 60 8.2
2008-03-07 08:10:10 51°18.183 3°1.96 62.3 2.7 62 8.3
2008-03-07 08:10:15 51°18.185 3°1.965 62 2.8 61 8.3
2008-03-07 08:10:20 51°18.187 3°1.97 61.6 2.9 60 8.3
2008-03-07 08:10:25 51°18.189 3°1.976 61.5 2.9 61 8.3
2008-03-07 08:10:30 51°18.191 3°1.982 61.3 3 60 8.3
2008-03-07 08:10:35 51°18.193 3°1.988 60.9 3.1 60 8.3
2008-03-07 08:10:40 51°18.195 3°1.993 60.9 3.1 60 8.3
2008-03-07 08:10:45 51°18.197 3°2 60.9 3.1 60 8.3
2008-03-07 08:10:50 51°18.199 3°2.006 60.9 3.2 60 8.3
2008-03-07 08:10:55 51°18.201 3°2.012 60.7 3.3 57 8.2
2008-03-07 08:11:00 51°18.204 3°2.018 60.6 3.3 62 8.1
2008-03-07 08:11:05 51°18.206 3°2.025 60.9 3.3 61 8.3
2008-03-07 08:11:10 51°18.208 3°2.031 60.9 3.3 61 8.4
2008-03-07 08:11:15 51°18.211 3°2.038 60.8 3.4 59 8.4
2008-03-07 08:11:20 51°18.213 3°2.044 60.9 3.4 62 8.5
2008-03-07 08:11:25 51°18.215 3°2.051 61.3 3.4 60 8.4
2008-03-07 08:11:30 51°18.218 3°2.057 61.3 3.4 62 8.4
2008-03-07 08:11:35 51°18.22 3°2.064 61 3.5 59 8.3
2008-03-07 08:11:40 51°18.222 3°2.071 61.1 3.5 60 8.3
2008-03-07 08:11:45 51°18.225 3°2.077 61.1 3.5 59 8.3
2008-03-07 08:11:50 51°18.227 3°2.084 61.1 3.5 61 8.4
2008-03-07 08:11:55 51°18.23 3°2.091 60.9 3.6 61 8.2
2008-03-07 08:12:00 51°18.232 3°2.098 60.8 3.6 60 8.4
2008-03-07 08:12:05 51°18.235 3°2.105 60.9 3.6 60 8.3
2008-03-07 08:12:10 51°18.237 3°2.112 60.9 3.6 60 8.3
2008-03-07 08:12:15 51°18.24 3°2.119 60.8 3.6 62 8.2
2008-03-07 08:12:20 51°18.242 3°2.126 60.9 3.6 60 8.2
2008-03-07 08:12:25 51°18.244 3°2.133 60.9 3.6 61 8.2
2008-03-07 08:12:30 51°18.247 3°2.139 60.9 3.6 60 8.1
2008-03-07 08:12:35 51°18.249 3°2.146 60.9 3.6 61 8.2
2008-03-07 08:12:40 51°18.252 3°2.153 60.7 3.6 62 8.1
2008-03-07 08:12:45 51°18.254 3°2.16 60.8 3.6 60 8.1
2008-03-07 08:12:50 51°18.257 3°2.167 60.6 3.6 61 8.2
2008-03-07 08:12:55 51°18.259 3°2.174 60.2 3.8 58 8.1
2008-03-07 08:13:00 51°18.261 3°2.182 60.1 3.9 63 8.1
2008-03-07 08:13:05 51°18.264 3°2.19 60.4 4.1 59 8.2
2008-03-07 08:13:10 51°18.268 3°2.198 60 4.3 59 8.2
2008-03-07 08:13:15 51°18.271 3°2.207 59.8 4.6 58 8.1
2008-03-07 08:13:20 51°18.274 3°2.216 59.8 4.9 60 8
2008-03-07 08:13:25 51°18.278 3°2.226 60.1 5.4 59 8.3
2008-03-07 08:13:30 51°18.282 3°2.237 59.8 5.8 59 8.1
2008-03-07 08:13:35 51°18.286 3°2.249 59.4 6.2 60 8.1
2008-03-07 08:13:40 51°18.291 3°2.261 59.4 6.4 60 8.1
2008-03-07 08:13:45 51°18.296 3°2.274 59.5 6.6 59 8.1
2008-03-07 08:13:50 51°18.3 3°2.286 58.7 6.8 58 8.2
2008-03-07 08:13:55 51°18.306 3°2.3 58.7 7.1 62 8.1
2008-03-07 08:14:00 51°18.311 3°2.313 59.1 7.2 58 8.1
2008-03-07 08:14:05 51°18.316 3°2.327 58.7 7.3 60 8
2008-03-07 08:14:10 51°18.321 3°2.342 59.3 7.4 60 8.1
2008-03-07 08:14:15 51°18.327 3°2.356 58.8 7.5 57 8.1
2008-03-07 08:14:20 51°18.332 3°2.37 58.8 7.6 60 8.1
2008-03-07 08:14:25 51°18.338 3°2.385 58.7 7.6 57 7.9
2008-03-07 08:14:30 51°18.343 3°2.4 58.3 7.8 62 8
2008-03-07 08:14:35 51°18.349 3°2.414 58.7 7.8 58 8.2
2008-03-07 08:14:40 51°18.354 3°2.429 59.1 7.8 60 8.2
2008-03-07 08:14:45 51°18.36 3°2.444 59.7 7.9 61 8
2008-03-07 08:14:50 51°18.365 3°2.459 59.6 7.9 61 8.1
2008-03-07 08:14:55 51°18.37 3°2.475 59.4 7.9 63 8
2008-03-07 08:15:00 51°18.375 3°2.491 62.3 7.9 66 8.1
2008-03-07 08:15:05 51°18.378 3°2.507 64.8 7.9 67 8.1
2008-03-07 08:15:10 51°18.383 3°2.523 66.2 7.9 69 8
2008-03-07 08:15:15 51°18.386 3°2.54 67.6 7.9 69 8.1
2008-03-07 08:15:20 51°18.39 3°2.556 68.2 8 72 7.9
2008-03-07 08:15:25 51°18.394 3°2.573 69.5 8 69 8
2008-03-07 08:15:30 51°18.397 3°2.589 69.2 8 73 8
2008-03-07 08:15:35 51°18.401 3°2.606 70.1 8 69 8
2008-03-07 08:15:40 51°18.404 3°2.623 70.1 8 72 8
2008-03-07 08:15:45 51°18.408 3°2.64 70 8 71 8
2008-03-07 08:15:50 51°18.412 3°2.656 70.3 8 71 7.9
2008-03-07 08:15:55 51°18.415 3°2.673 70.1 7.9 71 7.9
2008-03-07 08:16:00 51°18.419 3°2.69 69.9 7.9 71 7.9
2008-03-07 08:16:05 51°18.423 3°2.706 69.9 7.9 71 7.9
2008-03-07 08:16:10 51°18.426 3°2.723 70.2 7.8 72 7.9
2008-03-07 08:16:15 51°18.429 3°2.739 69.5 7.8 70 8
2008-03-07 08:16:20 51°18.433 3°2.755 69.9 7.8 72 8
2008-03-07 08:16:25 51°18.436 3°2.772 69.6 7.8 73 8
2008-03-07 08:16:30 51°18.438 3°2.789 71.5 7.8 78 8
2008-03-07 08:16:35 51°18.441 3°2.805 74.8 7.7 79 8
2008-03-07 08:16:40 51°18.442 3°2.823 76.4 7.7 81 7.9
2008-03-07 08:16:45 51°18.444 3°2.839 78.3 7.7 79 7.9
2008-03-07 08:16:50 51°18.446 3°2.856 78.3 7.7 78 7.9
2008-03-07 08:16:55 51°18.449 3°2.872 77.5 7.7 76 7.9
2008-03-07 08:17:00 51°18.451 3°2.889 75.5 7.8 78 7.8
2008-03-07 08:17:05 51°18.454 3°2.906 75 7.7 73 7.9
2008-03-07 08:17:10 51°18.456 3°2.922 73.9 7.7 78 7.9
2008-03-07 08:17:15 51°18.459 3°2.939 73.9 7.7 74 7.9
2008-03-07 08:17:20 51°18.462 3°2.955 73.6 7.7 75 8
2008-03-07 08:17:25 51°18.465 3°2.972 73.4 7.7 75 7.9
2008-03-07 08:17:30 51°18.468 3°2.988 73.3 7.7 73 8
2008-03-07 08:17:35 51°18.471 3°3.005 73.4 7.7 75 8
2008-03-07 08:17:40 51°18.474 3°3.021 73.6 7.7 75 8
2008-03-07 08:17:45 51°18.478 3°3.037 72.8 7.7 70 8
2008-03-07 08:17:50 51°18.481 3°3.053 70.7 7.7 70 8
2008-03-07 08:17:55 51°18.485 3°3.069 68.8 7.7 70 8
2008-03-07 08:18:00 51°18.489 3°3.085 68.7 7.7 67 8
2008-03-07 08:18:05 51°18.493 3°3.101 67.3 7.7 67 7.9
2008-03-07 08:18:10 51°18.497 3°3.116 66.7 7.7 68 7.9
2008-03-07 08:18:15 51°18.502 3°3.132 66.7 7.7 67 7.9
2008-03-07 08:18:20 51°18.506 3°3.148 66.2 7.7 67 7.9
2008-03-07 08:18:25 51°18.51 3°3.163 66.7 7.7 67 7.9
2008-03-07 08:18:30 51°18.514 3°3.179 66 7.7 68 7.9
2008-03-07 08:18:35 51°18.518 3°3.194 66.4 7.7 67 8
2008-03-07 08:18:40 51°18.522 3°3.21 66.3 7.7 67 8
2008-03-07 08:18:45 51°18.526 3°3.226 66.4 7.7 68 8
2008-03-07 08:18:50 51°18.531 3°3.242 67 7.7 68 8
2008-03-07 08:18:55 51°18.535 3°3.257 66.7 7.7 69 8
2008-03-07 08:19:00 51°18.539 3°3.273 66.7 7.7 67 8
2008-03-07 08:19:05 51°18.543 3°3.289 66.5 7.6 68 8
2008-03-07 08:19:10 51°18.547 3°3.305 67 7.6 67 8
2008-03-07 08:19:15 51°18.551 3°3.32 67.4 7.7 68 8
2008-03-07 08:19:20 51°18.555 3°3.336 66.7 7.6 68 7.9
2008-03-07 08:19:25 51°18.559 3°3.351 66.7 7.6 66 8
2008-03-07 08:19:30 51°18.563 3°3.367 66.5 7.6 67 8
2008-03-07 08:19:35 51°18.567 3°3.382 66.2 7.7 67 8
2008-03-07 08:19:40 51°18.571 3°3.398 66.1 7.7 67 8
2008-03-07 08:19:45 51°18.575 3°3.414 66.1 7.7 68 8.1
2008-03-07 08:19:50 51°18.579 3°3.429 66.5 7.7 67 7.9
2008-03-07 08:19:55 51°18.583 3°3.445 66.7 7.7 69 7.9
2008-03-07 08:20:00 51°18.587 3°3.461 67.1 7.7 67 8
2008-03-07 08:20:05 51°18.591 3°3.476 67.1 7.7 68 8.1
2008-03-07 08:20:10 51°18.595 3°3.492 66.9 7.7 68 8.1
2008-03-07 08:20:15 51°18.599 3°3.508 67 7.7 68 8.1
2008-03-07 08:20:20 51°18.603 3°3.524 67.4 7.7 69 8.1
2008-03-07 08:20:25 51°18.607 3°3.54 67.8 7.7 69 8
2008-03-07 08:20:30 51°18.611 3°3.555 67.6 7.7 69 8.1
2008-03-07 08:20:35 51°18.615 3°3.571 67.2 7.5 67 8
2008-03-07 08:20:40 51°18.618 3°3.586 67.2 7.2 71 8
2008-03-07 08:20:45 51°18.622 3°3.6 67.4 6.8 68 8
2008-03-07 08:20:50 51°18.624 3°3.614 68.2 6.5 77 8
2008-03-07 08:20:55 51°18.626 3°3.627 71.3 6.2 78 8
2008-03-07 08:21:00 51°18.627 3°3.641 74.9 5.9 86 8.1
2008-03-07 08:21:05 51°18.627 3°3.653 79 5.8 86 8.2
2008-03-07 08:21:10 51°18.627 3°3.666 83.1 5.6 95 8.1
2008-03-07 08:21:15 51°18.626 3°3.678 87.2 5.4 96 8.1
2008-03-07 08:21:20 51°18.624 3°3.689 91.4 5.3 102 8
2008-03-07 08:21:25 51°18.623 3°3.7 95.3 5.2 105 8
2008-03-07 08:21:30 51°18.62 3°3.711 98.7 5.1 108 8
2008-03-07 08:21:35 51°18.618 3°3.722 101 5 109 8.1
2008-03-07 08:21:40 51°18.616 3°3.732 102.2 5 110 8.1
2008-03-07 08:21:45 51°18.614 3°3.742 103 4.9 108 8
2008-03-07 08:21:50 51°18.612 3°3.753 103.4 4.8 109 8
2008-03-07 08:21:55 51°18.61 3°3.763 102.8 4.7 105 8
2008-03-07 08:22:00 51°18.608 3°3.772 101.5 4.4 106 8
2008-03-07 08:22:05 51°18.607 3°3.781 99.3 4.1 104 8
2008-03-07 08:22:10 51°18.605 3°3.789 97.9 3.7 105 8
2008-03-07 08:22:15 51°18.604 3°3.796 97.2 3.5 107 8.1
2008-03-07 08:22:20 51°18.603 3°3.803 97.7 3.3 110 8.1
2008-03-07 08:22:25 51°18.601 3°3.81 99.6 3 113 8.1
2008-03-07 08:22:30 51°18.599 3°3.815 102.2 2.5 115 8
2008-03-07 08:22:35 51°18.598 3°3.818 105.1 2 128 8
2008-03-07 08:22:40 51°18.596 3°3.821 109 1.7 132 8
2008-03-07 08:22:45 51°18.595 3°3.823 113.6 1.3 139 8
2008-03-07 08:22:50 51°18.594 3°3.824 117.5 0.9 154 8
2008-03-07 08:22:55 51°18.593 3°3.824 121.3 0.6 170 8
2008-03-07 08:23:00 51°18.592 3°3.823 124.2 0.4 212 8
2008-03-07 08:23:05 51°18.592 3°3.823 127 0.5 230 7.9
2008-03-07 08:23:10 51°18.591 3°3.822 129.6 0.4 240 8
2008-03-07 08:23:15 51°18.591 3°3.821 130.8 0.4 239 8.1
2008-03-07 08:23:20 51°18.591 3°3.82 131.7 0.4 245 8
2008-03-07 08:23:25 51°18.591 3°3.82 132.1 0.4 243 8.1
2008-03-07 08:23:30 51°18.591 3°3.819 132.2 0.4 245 8
2008-03-07 08:23:35 51°18.59 3°3.818 132 0.4 244 8
2008-03-07 08:23:40 51°18.59 3°3.817 131.9 0.4 250 8
2008-03-07 08:23:45 51°18.59 3°3.816 131.7 0.4 257 8
2008-03-07 08:23:50 51°18.59 3°3.816 131.3 0.5 251 8
2008-03-07 08:23:55 51°18.59 3°3.815 130.8 0.3 264 8
2008-03-07 08:24:00 51°18.59 3°3.814 130.4 0.4 253 8
2008-03-07 08:24:05 51°18.59 3°3.813 130.3 0.4 264 8
2008-03-07 08:24:10 51°18.59 3°3.812 129.7 0.4 262 8
2008-03-07 08:24:15 51°18.59 3°3.811 129.1 0.3 272 8
2008-03-07 08:24:20 51°18.589 3°3.811 128.5 0.4 264 8
2008-03-07 08:24:25 51°18.589 3°3.81 127.8 0.4 269 8
2008-03-07 08:24:30 51°18.589 3°3.809 127 0.4 266 8
2008-03-07 08:24:36 51°18.589 3°3.808 126.5 0.4 263 8
2008-03-07 08:24:40 51°18.589 3°3.807 125.7 0.4 272 8
2008-03-07 08:24:45 51°18.589 3°3.806 124.9 0.4 278 8
2008-03-07 08:24:50 51°18.589 3°3.805 124.3 0.4 275 8
2008-03-07 08:24:55 51°18.589 3°3.804 123.7 0.4 266 8
2008-03-07 08:25:00 51°18.589 3°3.803 123 0.5 266 8
2008-03-07 08:25:05 51°18.589 3°3.802 122.6 0.4 270 8
2008-03-07 08:25:10 51°18.589 3°3.801 122.1 0.4 266 8
2008-03-07 08:25:16 51°18.589 3°3.8 121.6 0.5 267 8
2008-03-07 08:25:20 51°18.589 3°3.799 121.1 0.5 266 8.1
2008-03-07 08:25:25 51°18.589 3°3.798 120.4 0.5 269 8
2008-03-07 08:25:30 51°18.589 3°3.797 119.7 0.5 271 8.1
2008-03-07 08:25:35 51°18.589 3°3.796 118.9 0.5 273 8
2008-03-07 08:25:40 51°18.588 3°3.795 118.2 0.5 264 8.1
2008-03-07 08:25:45 51°18.589 3°3.794 117.5 0.5 275 8.1
2008-03-07 08:25:50 51°18.589 3°3.793 116.8 0.5 266 8.1
2008-03-07 08:25:55 51°18.589 3°3.792 115.8 0.4 270 8.1
2008-03-07 08:26:00 51°18.589 3°3.791 115.1 0.4 278 8
2008-03-07 08:26:05 51°18.589 3°3.79 114.5 0.5 265 8
2008-03-07 08:26:10 51°18.589 3°3.789 114 0.4 273 8.1
2008-03-07 08:26:15 51°18.589 3°3.788 113.4 0.4 282 8.1
2008-03-07 08:26:20 51°18.589 3°3.787 113 0.4 267 8
2008-03-07 08:26:25 51°18.589 3°3.786 112.6 0.4 274 8
2008-03-07 08:26:30 51°18.589 3°3.785 112.2 0.5 271 8
2008-03-07 08:26:35 51°18.59 3°3.784 111.5 0.4 284 8.1
2008-03-07 08:26:40 51°18.59 3°3.783 111 0.4 274 8.1
2008-03-07 08:26:45 51°18.59 3°3.782 110.4 0.5 278 8
2008-03-07 08:26:50 51°18.59 3°3.781 109.7 0.4 289 8.1
2008-03-07 08:26:56 51°18.59 3°3.78 108.8 0.5 268 8.1
2008-03-07 08:27:00 51°18.59 3°3.779 108.4 0.5 284 8.1
2008-03-07 08:27:05 51°18.59 3°3.778 107.6 0.5 275 8.2
2008-03-07 08:27:10 51°18.59 3°3.777 107 0.5 274 8.1
2008-03-07 08:27:15 51°18.59 3°3.776 106.8 0.5 272 8.2
2008-03-07 08:27:20 51°18.59 3°3.775 106 0.5 272 8.1
2008-03-07 08:27:25 51°18.59 3°3.774 105.9 0.5 282 8.1
2008-03-07 08:27:30 51°18.59 3°3.773 105.4 0.5 273 8.1
2008-03-07 08:27:35 51°18.59 3°3.772 105.4 0.5 289 8.1
2008-03-07 08:27:40 51°18.59 3°3.771 105 0.5 264 8
2008-03-07 08:27:45 51°18.591 3°3.77 105 0.5 290 8.1
2008-03-07 08:27:50 51°18.591 3°3.769 104.4 0.5 268 8.1
2008-03-07 08:27:55 51°18.591 3°3.768 104.3 0.5 278 8.1
2008-03-07 08:28:00 51°18.591 3°3.767 103.9 0.5 269 8.1
2008-03-07 08:28:05 51°18.591 3°3.766 103.6 0.5 277 8
2008-03-07 08:28:10 51°18.591 3°3.765 103.5 0.5 264 8
2008-03-07 08:28:15 51°18.591 3°3.764 103.2 0.5 275 8
2008-03-07 08:28:20 51°18.591 3°3.762 103.2 0.5 268 8.1
2008-03-07 08:28:25 51°18.591 3°3.761 103.2 0.5 275 8.1
2008-03-07 08:28:30 51°18.591 3°3.76 103.2 0.5 263 8.1
2008-03-07 08:28:35 51°18.591 3°3.759 103.2 0.5 266 8.1
2008-03-07 08:28:40 51°18.592 3°3.758 103 0.5 275 8.1
2008-03-07 08:28:45 51°18.592 3°3.757 103 0.5 272 8.1
2008-03-07 08:28:50 51°18.591 3°3.756 103 0.4 272 8.1
2008-03-07 08:28:55 51°18.591 3°3.755 103.1 0.5 270 8.1
2008-03-07 08:29:00 51°18.591 3°3.754 103 0.5 274 8.1
2008-03-07 08:29:05 51°18.591 3°3.753 103.2 0.4 274 8.1
2008-03-07 08:29:10 51°18.591 3°3.752 103.2 0.5 270 8.1
2008-03-07 08:29:16 51°18.591 3°3.751 103.2 0.5 271 8.1
2008-03-07 08:29:20 51°18.591 3°3.75 103.1 0.5 272 8.1
2008-03-07 08:29:25 51°18.591 3°3.749 103 0.5 277 8.1
2008-03-07 08:29:30 51°18.591 3°3.748 103 0.5 271 8.1
2008-03-07 08:29:35 51°18.591 3°3.747 102.8 0.5 270 8.1
2008-03-07 08:29:40 51°18.591 3°3.746 102.5 0.4 264 8
2008-03-07 08:29:45 51°18.591 3°3.745 102.4 0.4 269 8.1
2008-03-07 08:29:50 51°18.591 3°3.744 102.2 0.4 267 8
2008-03-07 08:29:55 51°18.591 3°3.744 102.6 0.4 265 8.1
2008-03-07 08:30:00 51°18.591 3°3.742 102.7 0.4 264 8
2008-03-07 08:30:05 51°18.591 3°3.742 103 0.4 266 8
2008-03-07 08:30:10 51°18.591 3°3.741 103.1 0.4 267 8
2008-03-07 08:30:15 51°18.591 3°3.74 103.5 0.4 258 8
2008-03-07 08:30:20 51°18.591 3°3.739 103.9 0.4 251 8
2008-03-07 08:30:25 51°18.591 3°3.738 104.2 0.4 261 8.1
2008-03-07 08:30:30 51°18.591 3°3.738 104.5 0.4 257 8
2008-03-07 08:30:35 51°18.591 3°3.737 104.9 0.4 269 8.1
2008-03-07 08:30:40 51°18.591 3°3.736 105.2 0.4 257 8
2008-03-07 08:30:45 51°18.591 3°3.735 105.5 0.4 259 8.1
2008-03-07 08:30:50 51°18.591 3°3.734 105.8 0.4 257 8.1
2008-03-07 08:30:55 51°18.591 3°3.734 106.1 0.4 253 8.1
2008-03-07 08:31:00 51°18.591 3°3.733 106.5 0.4 263 8.1
2008-03-07 08:31:05 51°18.59 3°3.732 106.6 0.4 254 8.1
2008-03-07 08:31:10 51°18.59 3°3.731 106.7 0.3 258 8.1
2008-03-07 08:31:15 51°18.59 3°3.73 106.8 0.3 253 8.1
2008-03-07 08:31:20 51°18.59 3°3.73 107.2 0.3 259 8.2
2008-03-07 08:31:25 51°18.59 3°3.729 107.5 0.3 246 8.1
2008-03-07 08:31:30 51°18.59 3°3.729 107.9 0.3 250 8.1
2008-03-07 08:31:36 51°18.59 3°3.728 108.5 0.3 249 8.2
2008-03-07 08:31:40 51°18.59 3°3.728 108.8 0.3 247 8.2
2008-03-07 08:31:45 51°18.59 3°3.727 109.2 0.3 242 8.1
2008-03-07 08:31:50 51°18.59 3°3.726 109.5 0.3 251 8.2
2008-03-07 08:31:55 51°18.589 3°3.726 109.6 0.3 263 8.1
2008-03-07 08:32:00 51°18.589 3°3.725 109.9 0.3 260 8.1
2008-03-07 08:32:05 51°18.589 3°3.724 109.9 0.3 273 8.1
2008-03-07 08:32:10 51°18.589 3°3.724 110.2 0.3 249 8.1
2008-03-07 08:32:15 51°18.589 3°3.723 110.4 0.3 257 8.1
2008-03-07 08:32:20 51°18.589 3°3.723 110.7 0.3 251 8.1
2008-03-07 08:32:25 51°18.589 3°3.722 110.9 0.3 258 8.1
2008-03-07 08:32:30 51°18.589 3°3.722 110.9 0.3 253 8.2
2008-03-07 08:32:35 51°18.589 3°3.721 111 0.2 265 8.1
2008-03-07 08:32:40 51°18.589 3°3.72 111.3 0.3 248 8.1
2008-03-07 08:32:45 51°18.589 3°3.72 111.6 0.2 271 8.2
2008-03-07 08:32:50 51°18.588 3°3.719 111.7 0.3 251 8.1
2008-03-07 08:32:55 51°18.588 3°3.719 111.9 0.3 259 8.1
2008-03-07 08:33:00 51°18.588 3°3.718 112 0.3 244 8.1
2008-03-07 08:33:05 51°18.588 3°3.718 112.1 0.3 253 8.2
2008-03-07 08:33:10 51°18.588 3°3.717 112.4 0.3 249 8.2
2008-03-07 08:33:15 51°18.588 3°3.717 112.5 0.3 248 8.2
2008-03-07 08:33:20 51°18.588 3°3.716 112.8 0.3 243 8.2
2008-03-07 08:33:25 51°18.588 3°3.716 113.1 0.2 249 8.2
2008-03-07 08:33:30 51°18.587 3°3.715 113.3 0.3 244 8.2
2008-03-07 08:33:35 51°18.587 3°3.714 113.9 0.2 249 8.2
2008-03-07 08:33:40 51°18.587 3°3.714 114.1 0.3 244 8.2
2008-03-07 08:33:45 51°18.587 3°3.713 114.1 0.3 252 8.2
2008-03-07 08:33:50 51°18.587 3°3.713 114.4 0.2 253 8.2
2008-03-07 08:33:56 51°18.587 3°3.712 114.6 0.2 265 8.2
2008-03-07 08:34:00 51°18.587 3°3.711 114.8 0.2 253 8.1
2008-03-07 08:34:05 51°18.587 3°3.711 114.8 0.3 251 8.2
2008-03-07 08:34:10 51°18.587 3°3.71 114.8 0.3 258 8.2
2008-03-07 08:34:15 51°18.587 3°3.71 114.8 0.3 245 8.2
2008-03-07 08:34:20 51°18.587 3°3.709 114.8 0.2 246 8.2
2008-03-07 08:34:25 51°18.586 3°3.709 114.8 0.3 253 8.2
2008-03-07 08:34:30 51°18.586 3°3.708 114.9 0.3 257 8.2
2008-03-07 08:34:35 51°18.586 3°3.707 115.2 0.3 244 8.2
2008-03-07 08:34:40 51°18.586 3°3.707 115.3 0.3 263 8.2
2008-03-07 08:34:45 51°18.586 3°3.706 115.7 0.4 243 8.2
2008-03-07 08:34:50 51°18.586 3°3.706 115.9 0.2 252 8.2
2008-03-07 08:34:55 51°18.585 3°3.706 115.8 0.3 237 8.2
2008-03-07 08:35:00 51°18.585 3°3.705 116 0.3 241 8.2
2008-03-07 08:35:05 51°18.585 3°3.704 116.1 0.3 243 8.2
2008-03-07 08:35:10 51°18.585 3°3.704 116.6 0.3 232 8.2
2008-03-07 08:35:15 51°18.584 3°3.703 116.9 0.4 233 8.2
2008-03-07 08:35:20 51°18.584 3°3.703 117.2 0.3 236 8.2
2008-03-07 08:35:25 51°18.584 3°3.702 117.5 0.3 233 8.3
2008-03-07 08:35:30 51°18.584 3°3.702 118.1 0.3 240 8.3
2008-03-07 08:35:35 51°18.583 3°3.701 118.4 0.3 236 8.3
2008-03-07 08:35:40 51°18.583 3°3.701 118.5 0.3 238 8.3
2008-03-07 08:35:45 51°18.583 3°3.7 118.9 0.3 241 8.3
2008-03-07 08:35:50 51°18.583 3°3.7 119.2 0.3 241 8.3
2008-03-07 08:35:55 51°18.583 3°3.699 119.6 0.2 249 8.3
2008-03-07 08:36:00 51°18.582 3°3.699 119.9 0.3 248 8.2
2008-03-07 08:36:05 51°18.582 3°3.698 120.4 0.3 233 8.2
2008-03-07 08:36:10 51°18.582 3°3.698 120.6 0.2 242 8.2
2008-03-07 08:36:16 51°18.582 3°3.697 120.5 0.3 237 8.2
2008-03-07 08:36:20 51°18.582 3°3.697 121.1 0.2 241 8.2
2008-03-07 08:36:25 51°18.582 3°3.696 121.3 0.3 243 8.2
2008-03-07 08:36:30 51°18.582 3°3.696 121.7 0.3 250 8.2
2008-03-07 08:36:36 51°18.582 3°3.695 121.6 0.3 250 8.3
2008-03-07 08:36:40 51°18.582 3°3.695 121.5 0.3 257 8.3
2008-03-07 08:36:45 51°18.582 3°3.694 121.6 0.3 252 8.3
2008-03-07 08:36:50 51°18.582 3°3.694 121.5 0.2 261 8.3
2008-03-07 08:36:55 51°18.581 3°3.693 121.3 0.3 254 8.2
2008-03-07 08:37:00 51°18.581 3°3.692 121.4 0.3 249 8.2
2008-03-07 08:37:05 51°18.581 3°3.692 121.4 0.2 251 8.3
2008-03-07 08:37:10 51°18.581 3°3.691 121.4 0.2 247 8.3
2008-03-07 08:37:15 51°18.581 3°3.691 121.4 0.3 250 8.1
2008-03-07 08:37:20 51°18.581 3°3.69 121.5 0.3 249 8.2
2008-03-07 08:37:25 51°18.58 3°3.689 121.4 0.3 253 8.3
2008-03-07 08:37:30 51°18.579 3°3.689 121.3 0.3 243 8.2
2008-03-07 08:37:35 51°18.579 3°3.688 121.3 0.3 245 8.2
2008-03-07 08:37:40 51°18.579 3°3.688 121.5 0.2 241 8.2
2008-03-07 08:37:45 51°18.579 3°3.687 121.7 0.3 242 8.2
2008-03-07 08:37:50 51°18.579 3°3.686 121.9 0.3 243 8.3
2008-03-07 08:37:55 51°18.579 3°3.686 121.9 0.3 235 8.3
2008-03-07 08:38:00 51°18.579 3°3.685 122.1 0.2 250 8.2
2008-03-07 08:38:05 51°18.579 3°3.685 122.1 0.3 241 8.3
2008-03-07 08:38:10 51°18.579 3°3.684 122.3 0.2 270 8.3
2008-03-07 08:38:15 51°18.578 3°3.684 122.4 0.3 237 8.2
2008-03-07 08:38:20 51°18.578 3°3.683 122.7 0.2 256 8.2
2008-03-07 08:38:25 51°18.578 3°3.683 122.8 0.3 233 8.2
2008-03-07 08:38:30 51°18.578 3°3.682 123 0.2 244 8.2
2008-03-07 08:38:36 51°18.578 3°3.682 123.4 0.2 247 8.2
2008-03-07 08:38:40 51°18.578 3°3.681 123.5 0.2 246 8.3
2008-03-07 08:38:45 51°18.578 3°3.681 123.7 0.3 245 8.3
2008-03-07 08:38:50 51°18.578 3°3.681 123.6 0.2 257 8.2
2008-03-07 08:38:55 51°18.577 3°3.68 123.5 0.3 243 8.3
2008-03-07 08:39:00 51°18.577 3°3.68 123.3 0.2 242 8.3
2008-03-07 08:39:05 51°18.577 3°3.679 123.3 0.2 240 8.3
2008-03-07 08:39:10 51°18.577 3°3.679 123.3 0.1 259 8.3
2008-03-07 08:39:15 51°18.577 3°3.678 123.5 0.3 253 8.3
2008-03-07 08:39:20 51°18.577 3°3.678 123.6 0.2 262 8.3
2008-03-07 08:39:25 51°18.577 3°3.677 123.5 0.2 253 8.3
2008-03-07 08:39:30 51°18.577 3°3.677 123.4 0.3 254 8.3
2008-03-07 08:39:35 51°18.577 3°3.676 123.3 0.2 255 8.3
2008-03-07 08:39:40 51°18.577 3°3.676 123.2 0.3 252 8.3
2008-03-07 08:39:45 51°18.577 3°3.676 123.2 0.2 261 8.3
2008-03-07 08:39:50 51°18.577 3°3.675 122.8 0.2 276 8.3
2008-03-07 08:39:55 51°18.577 3°3.675 122.7 0.2 261 8.2
2008-03-07 08:40:00 51°18.577 3°3.674 122.5 0.2 268 8.3
2008-03-07 08:40:05 51°18.577 3°3.674 122.1 0.2 254 8.3
2008-03-07 08:40:10 51°18.577 3°3.673 121.8 0.2 254 8.2
2008-03-07 08:40:15 51°18.577 3°3.673 121.5 0.2 264 8.1
2008-03-07 08:40:20 51°18.577 3°3.672 121.3 0.2 292 8.3
2008-03-07 08:40:25 51°18.577 3°3.672 121.3 0.2 265 8.2
2008-03-07 08:40:30 51°18.577 3°3.672 121.3 0.1 257 8.2
2008-03-07 08:40:36 51°18.576 3°3.672 121.2 0.1 251 8.2
2008-03-07 08:40:40 51°18.576 3°3.671 121.2 0.1 260 8.2
2008-03-07 08:40:45 51°18.576 3°3.671 121.3 0.2 243 8.3
2008-03-07 08:40:50 51°18.576 3°3.671 121.3 0.1 270 8.3
2008-03-07 08:40:55 51°18.576 3°3.67 121.3 0.2 242 8.3
2008-03-07 08:41:00 51°18.576 3°3.67 121.3 0.1 266 8.2
2008-03-07 08:41:05 51°18.576 3°3.669 121.3 0.2 243 8.2
2008-03-07 08:41:10 51°18.576 3°3.669 121.4 0.1 264 8.2
2008-03-07 08:41:15 51°18.576 3°3.669 121.3 0.2 246 8.3
2008-03-07 08:41:20 51°18.576 3°3.669 121.2 0.2 248 8.2
2008-03-07 08:41:25 51°18.576 3°3.668 121.3 0.1 259 8.3
2008-03-07 08:41:30 51°18.576 3°3.668 121.4 0.2 263 8.3
2008-03-07 08:41:35 51°18.576 3°3.668 121.5 0.1 287 8.2
2008-03-07 08:41:40 51°18.576 3°3.667 122 0.2 258 8.3
2008-03-07 08:41:45 51°18.576 3°3.667 121.9 0.1 275 8.2
2008-03-07 08:41:50 51°18.576 3°3.667 122 0.2 269 8.2
2008-03-07 08:41:55 51°18.576 3°3.666 121.8 0.2 264 8.3
2008-03-07 08:42:00 51°18.576 3°3.666 121.8 0.2 288 8.2
2008-03-07 08:42:05 51°18.576 3°3.666 121.8 0.2 268 8.3
2008-03-07 08:42:10 51°18.576 3°3.666 121.8 0.2 273 8.3
2008-03-07 08:42:15 51°18.576 3°3.665 121.8 0.1 268 8.3
2008-03-07 08:42:20 51°18.576 3°3.665 121.8 0.1 269 8.3
2008-03-07 08:42:25 51°18.576 3°3.665 121.8 0.1 281 8.3